Waterloo, IA

5:27 PM CST on December 03, 2016 (GMT -0600)
Byrnes Golf Course | | Change Station
Active Advisory: Winter Weather Advisory

Elev 925 ft 42.48 °N, 92.37 °W | Updated 6 seconds ago

Overcast
Overcast
37.0 °F
Feels Like 37 °F
N
0.0
Wind Variable Wind from South

Today
High -- | Low -- °F
--% Chance of Precip.
Yesterday
High -- | Low -- °F
Precip. -- in
Pressure 30.27 in
Visibility 10.0 miles
Clouds Few 2900 ft
Overcast 8000 ft
Windchill 37 °F
Dew Point 31 °F
Humidity 81%
Rainfall 0.00 in
Snow Depth Not available.
7:21 AM 4:36 PM
Waxing Crescent, 18% visible
METAR KALO 032254Z AUTO 00000KT 10SM FEW029 OVC080 03/M02 A3024 RMK AO2 SLP250 T00281022
Pressure 30.27 in
Visibility 10.0 miles
Clouds Few 2900 ft
Overcast 8000 ft
Windchill 37 °F
Dew Point 31 °F
Humidity 81%
Rainfall 0.00 in
Snow Depth Not available.
7:21 AM 4:36 PM
Waxing Crescent, 18% visible
METAR KALO 032254Z AUTO 00000KT 10SM FEW029 OVC080 03/M02 A3024 RMK AO2 SLP250 T00281022

10-Day Weather Forecast

Almanac

Astronomy

Dec. 03, 2016 Rise Set
Actual Time
Civil Twilight
Nautical Twilight
Astronomical Twilight
Moon
Length of Visible Light
Length of Day
Tomorrow will be .
, % of the Moon is Illuminated

Today's Extremes

State Highs State Lows

Community

WunderPhotos

Upload Photos

1,955,540 photos uploaded!

WunderBlog® & News

Nearby

Air Quality

  Air Quality AQ Index Pollutant
Not available.

Snow Depth

Station Depth Elevation

Earthquake Activity

City Distance Mag. Time & Date
Minimum magnitude displayed is 2.5.

Coastal Water Temperatures

Place Temperature

Stations

Nearby Weather Stations

Station Location Temp. Windchill Dew Point Humidity Wind Precip. Elev Updated Type
                   

Watches & Warnings

Winter Weather Advisory
Issued: 3:04 PM CST Dec. 3, 2016 – National Weather Service

... Winter Weather Advisory in effect from 8 PM this evening to
11 am CST Sunday...

The National Weather Service in Des Moines has issued a Winter
Weather Advisory for snow, which is in effect from 8 PM this
evening to 11 am CST Sunday.

* Timing... mainly tonight into Sunday morning

* storm total snow... snow fall accumulations of 2 to 4 inches are
possible.

* Winds/visibility... southeast winds of 7 to 12 mph are expected
but will have little impact. Visibilities may drop down to one
quarter mile at times due to falling snow.

* Impacts... primary impacts will be travel conditions. The
consistency of the snow will make it a slushy and slippery snow
on roadways that will further impact traction overnight.

Precautionary/preparedness actions...

A Winter Weather Advisory for snow means that periods of snow
will cause primarily travel difficulties. Be prepared for snow
covered roads and limited visibilities... and use caution while
driving.